Time;durP1;ratioP1;P1;durP2;ratioP2;P2;SDS_P1;SDS_P2;PMS_P1;PMS_P2;Temp;Humidity;BMP_temperature;BMP_pressure;BME280_temperature;BME280_humidity;BME280_pressure;Samples;Min_cycle;Max_cycle;Signal;HPM_P1;HPM_P2
2022/01/11 08:59:05;;;;;;;10.63;6.23;;;0.70;99.90;;;;;;5071859;28;20969;-78
2022/01/11 09:01:31;;;;;;;11.10;7.33;;;0.70;99.90;;;;;;5072069;28;20412;-78
2022/01/11 09:03:58;;;;;;;9.77;7.00;;;0.60;99.90;;;;;;5072196;28;20169;-78
2022/01/11 09:06:24;;;;;;;11.17;7.03;;;0.80;99.90;;;;;;5072426;28;20400;-79
2022/01/11 09:08:50;;;;;;;9.93;6.47;;;0.90;99.90;;;;;;5073552;28;20537;-78
2022/01/11 09:11:16;;;;;;;12.13;7.33;;;0.90;99.90;;;;;;5074024;28;20695;-78
2022/01/11 09:13:42;;;;;;;12.20;7.37;;;1.20;99.90;;;;;;5075523;28;20173;-79
2022/01/11 09:16:08;;;;;;;11.57;7.00;;;1.50;99.90;;;;;;5075206;28;20411;-79
2022/01/11 09:18:34;;;;;;;9.70;6.97;;;1.50;99.90;;;;;;5074618;28;20207;-79
2022/01/11 09:21:03;;;;;;;11.43;7.17;;;1.50;99.90;;;;;;5076141;28;20506;-79
2022/01/11 09:23:29;;;;;;;12.33;6.67;;;1.40;99.90;;;;;;5072083;28;20933;-79
2022/01/11 09:25:55;;;;;;;11.63;6.57;;;1.40;99.90;;;;;;5073596;28;20454;-79
2022/01/11 09:28:22;;;;;;;13.20;8.27;;;1.60;99.90;;;;;;5072312;28;20582;-78
2022/01/11 09:30:48;;;;;;;12.13;8.07;;;1.40;99.90;;;;;;5074694;28;20611;-79
2022/01/11 09:33:13;;;;;;;11.70;7.37;;;1.40;99.90;;;;;;5070824;28;20426;-78
2022/01/11 09:35:39;;;;;;;11.40;8.27;;;1.20;99.90;;;;;;5070624;28;20212;-78
2022/01/11 09:38:05;;;;;;;11.50;8.47;;;1.20;99.90;;;;;;5071807;28;20251;-78
2022/01/11 09:40:31;;;;;;;13.53;8.97;;;1.10;99.90;;;;;;5071702;28;20204;-78
2022/01/11 09:42:56;;;;;;;12.07;7.77;;;1.10;99.90;;;;;;5070648;28;20238;-78
2022/01/11 09:45:22;;;;;;;14.00;9.00;;;1.10;99.90;;;;;;5071803;28;20199;-78
2022/01/11 09:47:48;;;;;;;14.30;9.53;;;;;;;;;;5071658;28;20180;-78
2022/01/11 09:50:16;;;;;;;13.33;8.60;;;1.20;99.90;;;;;;5071375;28;20600;-78
2022/01/11 09:52:42;;;;;;;18.40;8.37;;;;;;;;;;5071256;28;20449;-79
2022/01/11 09:55:11;;;;;;;11.07;8.23;;;1.00;99.90;;;;;;5071838;28;20442;-78
2022/01/11 09:57:37;;;;;;;10.57;7.53;;;1.10;99.90;;;;;;5071469;28;20462;-79
2022/01/11 10:00:05;;;;;;;11.37;7.80;;;1.10;99.90;;;;;;5071229;28;20193;-78
2022/01/11 10:02:31;;;;;;;12.23;8.33;;;1.10;99.90;;;;;;5071397;28;20435;-79
2022/01/11 10:04:59;;;;;;;10.00;8.03;;;1.20;99.90;;;;;;5070137;28;20477;-79
2022/01/11 10:07:34;;;;;;;11.43;8.03;;;1.20;99.90;;;;;;5070034;28;20666;-79
2022/01/11 10:10:00;;;;;;;10.87;7.37;;;1.30;99.90;;;;;;5059220;28;20439;-78
2022/01/11 10:12:26;;;;;;;14.17;8.93;;;1.20;99.90;;;;;;5057250;28;20181;-78
2022/01/11 10:14:52;;;;;;;12.43;8.10;;;;;;;;;;5057104;28;20443;-78
2022/01/11 10:17:21;;;;;;;12.93;8.27;;;1.40;99.90;;;;;;5059720;28;20459;-78
2022/01/11 10:19:50;;;;;;;14.57;8.00;;;1.50;99.90;;;;;;5058916;28;20735;-78
2022/01/11 10:22:20;;;;;;;12.43;7.83;;;2.20;99.90;;;;;;5057855;28;20419;-78
2022/01/11 10:24:51;;;;;;;11.87;7.43;;;1.70;99.90;;;;;;5057201;28;20211;-78
2022/01/11 10:27:26;;;;;;;11.67;8.40;;;1.90;99.90;;;;;;5057232;28;20197;-79
2022/01/11 10:29:51;;;;;;;12.53;9.00;;;2.10;99.90;;;;;;5057193;28;20204;-79
2022/01/11 10:32:27;;;;;;;9.07;7.13;;;3.20;99.90;;;;;;5057561;28;20189;-79
2022/01/11 10:34:59;;;;;;;10.37;8.17;;;2.10;99.90;;;;;;5058328;28;20544;-79
2022/01/11 10:37:46;;;;;;;11.60;7.90;;;2.00;99.90;;;;;;5058745;28;20197;-79
2022/01/11 10:40:27;;;;;;;11.97;7.63;;;1.80;99.90;;;;;;5058510;28;20223;-79
2022/01/11 10:42:55;;;;;;;14.23;8.47;;;1.70;99.90;;;;;;5057467;28;20178;-79
2022/01/11 10:45:24;;;;;;;19.50;9.40;;;1.50;99.90;;;;;;5057141;28;20265;-79
2022/01/11 10:47:55;;;;;;;12.07;7.73;;;1.60;99.90;;;;;;5057220;28;20427;-79
2022/01/11 10:50:30;;;;;;;10.43;7.13;;;1.50;99.90;;;;;;5058259;28;20748;-80
2022/01/11 10:52:58;;;;;;;10.00;6.67;;;1.60;99.90;;;;;;5058058;28;20180;-79
2022/01/11 10:55:26;;;;;;;10.70;7.33;;;1.70;99.90;;;;;;5058753;28;20182;-79
2022/01/11 10:57:57;;;;;;;8.33;6.93;;;1.80;99.90;;;;;;5056536;28;20478;-79
2022/01/11 11:00:31;;;;;;;7.47;6.17;;;1.80;99.90;;;;;;5058205;28;20937;-79
2022/01/11 11:03:10;;;;;;;9.47;7.07;;;1.80;99.90;;;;;;5066223;28;20165;-79
2022/01/11 11:05:47;;;;;;;7.90;6.27;;;1.70;99.90;;;;;;5070479;28;20219;-79
2022/01/11 11:08:24;;;;;;;9.50;7.47;;;1.60;99.90;;;;;;5056710;28;20170;-79
2022/01/11 11:10:55;;;;;;;10.50;7.03;;;1.60;99.90;;;;;;5058653;28;20280;-79
2022/01/11 11:13:30;;;;;;;10.77;6.93;;;1.70;99.90;;;;;;5057924;28;20188;-79
2022/01/11 11:15:58;;;;;;;10.80;7.13;;;1.70;99.90;;;;;;5056291;28;20181;-79
2022/01/11 11:18:38;;;;;;;10.57;8.00;;;1.90;99.90;;;;;;5057828;28;20198;-79
2022/01/11 11:21:19;;;;;;;10.90;7.23;;;1.90;99.90;;;;;;5056186;28;20533;-79
2022/01/11 11:23:45;;;;;;;13.30;7.17;;;2.00;99.90;;;;;;5057108;28;20525;-79
2022/01/11 11:26:12;;;;;;;12.63;6.80;;;1.60;99.90;;;;;;5057995;28;20658;-79
2022/01/11 11:28:39;;;;;;;9.73;7.80;;;;;;;;;;5058004;28;20181;-79
2022/01/11 11:31:05;;;;;;;14.27;9.40;;;1.90;99.90;;;;;;5056862;28;20876;-79
2022/01/11 11:33:31;;;;;;;14.53;8.53;;;2.20;99.90;;;;;;5057411;28;20579;-79
2022/01/11 11:35:58;;;;;;;9.93;7.57;;;1.80;99.90;;;;;;5056889;28;21033;-80
2022/01/11 11:38:29;;;;;;;9.20;7.30;;;;;;;;;;5056867;28;20206;-80
2022/01/11 11:40:56;;;;;;;11.00;7.67;;;1.90;99.90;;;;;;5057024;28;20466;-79
2022/01/11 11:43:22;;;;;;;10.60;7.83;;;1.90;99.90;;;;;;5057181;28;20412;-80
2022/01/11 11:45:48;;;;;;;12.90;8.67;;;1.90;99.90;;;;;;5059390;28;20180;-79
2022/01/11 11:48:17;;;;;;;11.47;8.57;;;1.90;99.90;;;;;;5059858;28;20248;-79
2022/01/11 11:50:55;;;;;;;10.03;7.67;;;1.90;99.90;;;;;;5060293;28;20292;-79
2022/01/11 11:53:30;;;;;;;12.47;8.47;;;1.70;99.90;;;;;;5059538;28;20255;-80
2022/01/11 11:56:12;;;;;;;13.93;6.93;;;1.70;99.90;;;;;;5059874;28;20178;-80
2022/01/11 11:59:09;;;;;;;10.27;7.67;;;1.80;99.90;;;;;;5058144;28;20216;-78
2022/01/11 12:01:42;;;;;;;10.23;7.27;;;1.80;99.90;;;;;;5057839;28;21062;-81
2022/01/11 12:04:15;;;;;;;9.63;7.40;;;1.80;99.90;;;;;;5057010;28;20408;-80
2022/01/11 12:06:42;;;;;;;9.27;6.43;;;1.60;99.90;;;;;;5058378;28;20446;-81
2022/01/11 12:09:10;;;;;;;6.83;5.50;;;1.50;99.90;;;;;;5056151;28;20240;-81
2022/01/11 12:11:48;;;;;;;8.13;6.00;;;1.50;99.90;;;;;;5060356;28;20416;-81
2022/01/11 12:14:32;;;;;;;7.50;5.83;;;2.10;99.90;;;;;;5056994;28;20563;-81
2022/01/11 12:17:17;;;;;;;6.87;5.53;;;2.40;99.90;;;;;;5055303;28;20511;-79
2022/01/11 12:19:48;;;;;;;8.60;5.70;;;2.30;99.90;;;;;;5057023;28;20193;-78
2022/01/11 12:22:17;;;;;;;7.47;6.50;;;2.20;99.90;;;;;;5057433;28;20166;-81
2022/01/11 12:24:48;;;;;;;10.70;6.70;;;2.30;99.90;;;;;;5056628;28;20227;-81
2022/01/11 12:27:16;;;;;;;9.37;6.80;;;2.70;99.90;;;;;;5058537;28;20633;-81
2022/01/11 12:30:17;;;;;;;9.20;6.63;;;2.80;99.90;;;;;;5058848;28;20228;-79
2022/01/11 12:33:06;;;;;;;8.13;6.57;;;2.80;99.90;;;;;;5046978;28;20435;-79
2022/01/11 12:35:32;;;;;;;8.37;6.83;;;2.80;99.90;;;;;;5059372;28;20193;-79
2022/01/11 12:38:09;;;;;;;9.27;6.63;;;2.80;99.90;;;;;;5058228;28;20210;-79
2022/01/11 12:40:40;;;;;;;10.17;7.53;;;2.70;99.90;;;;;;5057018;28;20777;-79
2022/01/11 12:43:08;;;;;;;9.67;7.03;;;2.30;99.90;;;;;;5056783;28;20170;-79
2022/01/11 12:45:53;;;;;;;9.10;7.07;;;2.30;99.90;;;;;;5057512;28;20203;-79
2022/01/11 12:48:50;;;;;;;11.07;7.27;;;2.50;99.90;;;;;;5055917;28;20181;-79
2022/01/11 12:51:40;;;;;;;7.83;6.77;;;2.50;99.90;;;;;;5056893;28;20181;-79
2022/01/11 12:54:23;;;;;;;10.50;7.43;;;2.40;99.90;;;;;;5056881;28;20536;-80
2022/01/11 12:57:00;;;;;;;7.83;7.00;;;2.30;99.90;;;;;;5056329;28;20186;-80
2022/01/11 12:59:29;;;;;;;8.87;6.67;;;2.20;99.90;;;;;;5059803;28;20217;-80
2022/01/11 13:02:25;;;;;;;8.50;6.43;;;2.10;99.90;;;;;;5054874;28;20452;-79
2022/01/11 13:04:59;;;;;;;8.17;6.70;;;2.20;99.90;;;;;;5056076;28;20185;-79
2022/01/11 13:07:26;;;;;;;11.80;7.57;;;2.20;99.90;;;;;;5059906;28;20231;-79
2022/01/11 13:10:17;;;;;;;11.67;6.73;;;2.20;99.90;;;;;;5056255;28;20213;-79
2022/01/11 13:12:49;;;;;;;10.10;6.53;;;2.20;99.90;;;;;;5049329;28;20185;-79
2022/01/11 13:15:38;;;;;;;10.07;7.03;;;2.60;99.90;;;;;;5055806;28;20612;-79
2022/01/11 13:18:07;;;;;;;9.80;7.17;;;2.20;99.90;;;;;;5054210;28;20197;-79
2022/01/11 13:20:34;;;;;;;10.03;6.63;;;2.20;99.90;;;;;;5053002;28;20198;-79
2022/01/11 13:25:34;;;;;;;9.73;6.93;;;2.20;99.90;;;;;;5054923;28;20411;-78
2022/01/11 13:28:00;;;;;;;10.20;6.87;;;2.20;99.90;;;;;;5054435;28;20428;-78
2022/01/11 13:30:35;;;;;;;12.80;7.00;;;2.20;99.90;;;;;;5054852;28;20212;-79
2022/01/11 13:33:00;;;;;;;10.47;6.87;;;2.20;99.90;;;;;;5055957;28;20177;-79
2022/01/11 13:35:26;;;;;;;11.27;7.20;;;2.20;99.90;;;;;;5055975;28;20931;-79
2022/01/11 13:37:51;;;;;;;12.30;7.57;;;2.30;99.90;;;;;;5056761;28;20190;-79
2022/01/11 13:40:19;;;;;;;11.07;7.03;;;3.00;99.90;;;;;;5055366;28;20190;-79
2022/01/11 13:42:46;;;;;;;15.03;7.73;;;2.20;99.90;;;;;;5054810;28;20639;-79
2022/01/11 13:45:12;;;;;;;13.47;8.57;;;2.20;99.90;;;;;;5058834;28;20166;-79
2022/01/11 13:47:38;;;;;;;10.23;7.00;;;;;;;;;;5058833;28;20237;-78
2022/01/11 13:50:04;;;;;;;10.47;7.00;;;2.00;99.90;;;;;;5059897;28;20809;-79
2022/01/11 13:52:30;;;;;;;14.10;8.27;;;1.90;99.90;;;;;;5060648;28;20502;-79
2022/01/11 13:54:57;;;;;;;13.30;7.20;;;2.30;99.90;;;;;;5060052;28;20443;-79
2022/01/11 13:57:26;;;;;;;11.30;7.53;;;1.80;99.90;;;;;;5062289;28;20269;-79
2022/01/11 13:59:58;;;;;;;9.33;7.00;;;1.70;99.90;;;;;;5059082;28;20193;-79
2022/01/11 14:02:29;;;;;;;8.83;6.23;;;2.50;99.90;;;;;;5060634;28;20439;-79
2022/01/11 14:05:00;;;;;;;7.77;6.10;;;1.70;99.90;;;;;;5063083;28;20819;-79
2022/01/11 14:07:28;;;;;;;9.33;6.53;;;1.50;99.90;;;;;;5059297;28;20173;-78
2022/01/11 14:10:09;;;;;;;9.63;6.57;;;1.50;99.90;;;;;;5059237;28;20490;-78
2022/01/11 14:13:08;;;;;;;10.20;6.63;;;1.50;99.90;;;;;;5058040;28;20841;-78
2022/01/11 14:15:35;;;;;;;9.87;6.73;;;1.50;99.90;;;;;;5036218;28;20495;-79
2022/01/11 14:18:09;;;;;;;12.33;7.80;;;1.50;99.90;;;;;;5058393;28;20463;-79
2022/01/11 14:20:35;;;;;;;9.47;6.13;;;1.50;99.90;;;;;;5058461;28;20431;-79
2022/01/11 14:23:10;;;;;;;9.40;6.97;;;1.40;99.90;;;;;;5057342;28;20507;-79
2022/01/11 14:25:38;;;;;;;8.93;6.57;;;1.40;99.90;;;;;;5057482;28;20411;-79
2022/01/11 14:28:12;;;;;;;9.90;7.40;;;1.40;99.90;;;;;;5058859;28;20412;-78
2022/01/11 14:30:50;;;;;;;11.97;7.67;;;1.60;99.90;;;;;;5058318;28;20469;-79
2022/01/11 14:33:28;;;;;;;10.97;7.30;;;1.50;99.90;;;;;;5058707;28;20929;-79
2022/01/11 14:36:04;;;;;;;13.57;8.70;;;1.50;99.90;;;;;;5057557;28;20416;-79
2022/01/11 14:38:45;;;;;;;12.40;7.93;;;1.50;99.90;;;;;;5055935;28;20502;-77
2022/01/11 14:41:16;;;;;;;14.03;9.33;;;1.50;99.90;;;;;;5057687;28;20396;-78
2022/01/11 14:43:57;;;;;;;13.37;8.30;;;1.50;99.90;;;;;;5053541;28;20411;-78
2022/01/11 14:46:23;;;;;;;12.57;7.60;;;1.50;99.90;;;;;;5054055;28;20412;-78
2022/01/11 14:48:49;;;;;;;11.40;8.20;;;1.40;99.90;;;;;;5054692;28;20439;-78
2022/01/11 14:51:22;;;;;;;10.30;7.43;;;1.40;99.90;;;;;;5054595;28;20336;-78
2022/01/11 14:53:52;;;;;;;13.27;8.60;;;1.50;99.90;;;;;;5056021;28;20441;-78
2022/01/11 14:56:21;;;;;;;14.83;8.63;;;1.50;99.90;;;;;;5056384;28;20412;-77
2022/01/11 14:59:03;;;;;;;11.90;8.47;;;1.30;99.90;;;;;;5054297;28;20464;-78
2022/01/11 15:01:36;;;;;;;11.60;8.17;;;1.20;99.90;;;;;;5055582;28;20396;-77
2022/01/11 15:04:07;;;;;;;12.17;8.47;;;1.50;99.90;;;;;;5055559;28;20427;-77
2022/01/11 15:06:38;;;;;;;14.10;7.27;;;1.40;99.90;;;;;;5054124;28;20412;-78
2022/01/11 15:09:10;;;;;;;8.33;5.73;;;1.30;99.90;;;;;;5055709;28;20443;-79
2022/01/11 15:11:41;;;;;;;6.17;4.73;;;1.10;99.90;;;;;;5057496;28;20392;-78
2022/01/11 15:14:15;;;;;;;8.00;5.87;;;1.20;99.90;;;;;;5057660;28;20511;-78
2022/01/11 15:16:42;;;;;;;9.10;6.67;;;1.20;99.90;;;;;;5057329;28;20407;-79
2022/01/11 15:19:08;;;;;;;13.03;7.47;;;1.20;99.90;;;;;;5055803;28;20467;-78
2022/01/11 15:21:34;;;;;;;10.20;7.60;;;1.20;99.90;;;;;;5055903;28;20404;-78
2022/01/11 15:24:02;;;;;;;9.07;6.43;;;1.20;99.90;;;;;;5057299;28;20436;-78
2022/01/11 15:26:30;;;;;;;6.87;5.03;;;1.20;99.90;;;;;;5057120;28;20408;-78
2022/01/11 15:28:58;;;;;;;6.53;4.63;;;1.10;99.90;;;;;;5057221;28;20431;-78
2022/01/11 15:31:25;;;;;;;10.63;5.63;;;1.10;99.90;;;;;;5056967;28;20404;-78
2022/01/11 15:33:51;;;;;;;9.57;5.50;;;1.90;99.90;;;;;;5056874;28;20204;-78
2022/01/11 15:36:18;;;;;;;7.30;5.63;;;1.20;99.90;;;;;;5057323;28;20230;-78
2022/01/11 15:38:43;;;;;;;9.07;5.63;;;1.30;99.90;;;;;;5058984;28;20451;-78
2022/01/11 15:41:11;;;;;;;5.93;4.57;;;1.20;99.90;;;;;;5057878;28;20415;-78
2022/01/11 15:43:37;;;;;;;5.07;4.20;;;1.00;99.90;;;;;;5055846;28;20268;-79
2022/01/11 15:46:05;;;;;;;5.87;4.10;;;1.10;99.90;;;;;;5056158;28;20438;-78
2022/01/11 15:48:31;;;;;;;7.07;5.03;;;0.80;99.90;;;;;;5056211;28;20953;-78
2022/01/11 15:50:57;;;;;;;8.73;5.00;;;;;;;;;;5056877;28;20502;-78
2022/01/11 15:53:24;;;;;;;7.23;5.03;;;0.90;99.90;;;;;;5058262;28;20400;-78
2022/01/11 15:55:57;;;;;;;6.63;4.93;;;0.80;99.90;;;;;;5056915;28;20424;-78
2022/01/11 15:58:24;;;;;;;6.33;4.80;;;0.90;99.90;;;;;;5057006;28;20464;-78
2022/01/11 16:00:51;;;;;;;7.90;5.07;;;1.00;99.90;;;;;;5059095;28;20428;-78
2022/01/11 16:03:17;;;;;;;6.40;4.80;;;0.90;99.90;;;;;;5059067;28;20416;-82
2022/01/11 16:05:43;;;;;;;8.93;6.03;;;0.90;99.90;;;;;;5055216;28;20416;-78
2022/01/11 16:08:10;;;;;;;9.77;6.13;;;1.10;99.90;;;;;;5056090;28;20427;-79
2022/01/11 16:10:36;;;;;;;8.93;5.53;;;1.00;99.90;;;;;;5055556;28;20439;-79
2022/01/11 16:13:03;;;;;;;8.83;6.33;;;0.90;99.90;;;;;;5055176;28;20415;-78
2022/01/11 16:15:29;;;;;;;8.87;6.80;;;0.80;99.90;;;;;;5055657;28;20426;-79
2022/01/11 16:17:54;;;;;;;10.43;7.03;;;0.90;99.90;;;;;;5055996;28;20550;-78
2022/01/11 16:20:20;;;;;;;8.57;6.80;;;0.90;99.90;;;;;;5057710;28;20632;-78
2022/01/11 16:22:48;;;;;;;11.43;7.77;;;1.00;99.90;;;;;;5059519;28;20165;-78
2022/01/11 16:25:14;;;;;;;7.43;5.93;;;0.90;99.90;;;;;;5055732;28;20408;-78
2022/01/11 16:27:42;;;;;;;11.97;7.03;;;0.90;99.90;;;;;;5055233;28;20420;-78
2022/01/11 16:30:21;;;;;;;12.00;6.83;;;2.20;99.90;;;;;;5054482;28;20444;-79
2022/01/11 16:32:47;;;;;;;8.30;6.20;;;0.80;99.90;;;;;;5055721;28;20985;-78
2022/01/11 16:35:14;;;;;;;8.73;6.37;;;;;;;;;;5052111;28;20439;-78
2022/01/11 16:37:40;;;;;;;8.97;6.40;;;0.80;99.90;;;;;;5054583;28;20537;-78
2022/01/11 16:40:19;;;;;;;8.17;6.30;;;0.70;99.90;;;;;;5054686;28;20853;-78
2022/01/11 16:42:48;;;;;;;10.60;5.80;;;;;;;;;;5053735;28;20243;-78
2022/01/11 16:45:17;;;;;;;8.87;5.80;;;0.70;99.90;;;;;;5064722;28;20404;-78
2022/01/11 16:47:44;;;;;;;8.53;6.23;;;0.80;99.90;;;;;;5053556;28;20786;-78
2022/01/11 16:50:11;;;;;;;8.77;6.27;;;0.70;99.90;;;;;;5053066;28;20435;-78
2022/01/11 16:52:37;;;;;;;9.40;5.60;;;0.50;99.90;;;;;;5053370;28;20412;-78
2022/01/11 16:55:04;;;;;;;4.67;4.00;;;0.50;99.90;;;;;;5055476;28;20515;-78
2022/01/11 16:57:31;;;;;;;7.63;4.90;;;;;;;;;;5054112;28;20240;-78
2022/01/11 16:59:57;;;;;;;7.50;4.63;;;;;;;;;;5054113;28;20435;-78
2022/01/11 17:02:23;;;;;;;6.80;4.83;;;0.70;99.90;;;;;;5055101;28;20401;-78
2022/01/11 17:04:53;;;;;;;8.77;4.83;;;0.50;99.90;;;;;;5055703;28;20193;-79
2022/01/11 17:07:19;;;;;;;6.30;4.80;;;;;;;;;;5054157;28;20173;-78
2022/01/11 17:09:46;;;;;;;5.40;4.67;;;0.60;99.90;;;;;;5055222;28;20424;-78
2022/01/11 17:12:12;;;;;;;6.57;5.13;;;0.60;99.90;;;;;;5054176;28;20865;-78
2022/01/11 17:14:38;;;;;;;9.87;5.17;;;0.60;99.90;;;;;;5054117;28;20412;-78
2022/01/11 17:17:04;;;;;;;8.23;4.40;;;0.70;99.90;;;;;;5053476;28;20430;-78
2022/01/11 17:19:29;;;;;;;6.27;5.23;;;0.60;99.90;;;;;;5056476;28;20546;-78
2022/01/11 17:21:57;;;;;;;7.40;5.30;;;0.70;99.90;;;;;;5058090;28;20178;-78
2022/01/11 17:24:23;;;;;;;7.03;5.23;;;1.60;99.90;;;;;;5058260;28;20636;-78
2022/01/11 17:26:50;;;;;;;6.67;5.03;;;0.70;99.90;;;;;;5058242;28;20403;-78
2022/01/11 17:29:17;;;;;;;8.00;5.70;;;0.70;99.90;;;;;;5059156;28;20969;-79
2022/01/11 17:31:46;;;;;;;8.57;6.30;;;0.70;99.90;;;;;;5062796;28;20469;-78
2022/01/11 17:34:13;;;;;;;9.43;6.17;;;0.70;99.90;;;;;;5063234;28;20400;-79
2022/01/11 17:36:39;;;;;;;8.50;6.70;;;0.60;99.90;;;;;;5061318;28;20416;-78
2022/01/11 17:39:04;;;;;;;9.67;7.47;;;0.60;99.90;;;;;;5060815;28;20486;-78
2022/01/11 17:41:31;;;;;;;9.77;6.87;;;0.60;99.90;;;;;;5061035;28;20193;-78
2022/01/11 17:43:58;;;;;;;10.27;7.23;;;0.60;99.90;;;;;;5060554;28;20340;-78
2022/01/11 17:46:26;;;;;;;18.30;10.53;;;0.60;99.90;;;;;;5060957;28;20408;-78
2022/01/11 17:48:51;;;;;;;16.57;9.47;;;1.40;99.90;;;;;;5060845;28;20432;-80
2022/01/11 17:51:17;;;;;;;12.57;8.07;;;0.50;99.90;;;;;;5061300;28;20769;-78
2022/01/11 17:53:43;;;;;;;11.43;7.60;;;0.50;99.90;;;;;;5061696;28;20205;-78
2022/01/11 17:56:08;;;;;;;19.47;12.10;;;0.50;99.90;;;;;;5059966;28;20202;-78
2022/01/11 17:58:34;;;;;;;10.83;7.77;;;0.40;99.90;;;;;;5060139;28;20234;-78
2022/01/11 18:01:00;;;;;;;10.90;7.53;;;0.30;99.90;;;;;;5061224;28;20173;-78
2022/01/11 18:03:27;;;;;;;13.80;8.97;;;0.10;99.90;;;;;;5061442;28;20626;-78
2022/01/11 18:05:54;;;;;;;16.53;11.27;;;0.10;99.90;;;;;;5060135;28;20181;-78
2022/01/11 18:08:20;;;;;;;14.80;10.07;;;0.10;99.90;;;;;;5060819;28;20416;-78
2022/01/11 18:10:46;;;;;;;34.43;20.93;;;0.00;99.90;;;;;;5063100;28;20506;-78
2022/01/11 18:13:11;;;;;;;17.67;10.93;;;0.00;99.90;;;;;;5059327;28;20420;-78
2022/01/11 18:15:37;;;;;;;16.37;10.27;;;0.00;99.90;;;;;;5058915;28;20440;-78
2022/01/11 18:18:04;;;;;;;16.77;10.50;;;-0.10;99.90;;;;;;5060216;28;20243;-78
2022/01/11 18:20:30;;;;;;;15.83;9.63;;;-0.10;99.90;;;;;;5059641;28;20205;-79
2022/01/11 18:22:57;;;;;;;14.00;9.67;;;-0.10;99.90;;;;;;5060314;28;20416;-78
2022/01/11 18:25:23;;;;;;;14.73;9.87;;;-0.10;99.90;;;;;;5060021;28;20830;-78
2022/01/11 18:27:49;;;;;;;15.73;9.43;;;-0.10;99.90;;;;;;5058486;28;20504;-78
2022/01/11 18:30:17;;;;;;;13.73;9.33;;;-0.10;99.90;;;;;;5057543;28;20522;-78
2022/01/11 18:32:42;;;;;;;11.07;8.37;;;0.00;99.90;;;;;;5059121;28;20495;-78
2022/01/11 18:35:10;;;;;;;16.57;9.77;;;0.00;99.90;;;;;;5060694;28;20451;-78
2022/01/11 18:37:36;;;;;;;14.37;9.40;;;0.00;99.90;;;;;;5061647;28;20232;-78
2022/01/11 18:40:04;;;;;;;16.33;9.80;;;0.10;99.90;;;;;;5060537;28;20444;-78
2022/01/11 18:42:30;;;;;;;16.10;9.77;;;0.00;99.90;;;;;;5058712;28;20228;-78
2022/01/11 18:44:56;;;;;;;18.23;9.40;;;0.00;99.90;;;;;;5057898;28;20424;-78
2022/01/11 18:47:22;;;;;;;16.43;9.33;;;0.20;99.90;;;;;;5058980;28;20481;-78
